createdAt,value
2023-05-24T00:01:08.672Z,8.60
2023-05-24T00:03:39.384Z,8.60
2023-05-24T00:06:07.110Z,8.60
2023-05-24T00:08:34.586Z,8.60
2023-05-24T00:11:01.646Z,8.60
2023-05-24T00:13:28.585Z,8.50
2023-05-24T00:15:55.556Z,8.50
2023-05-24T00:18:22.569Z,8.50
2023-05-24T00:20:49.622Z,8.40
2023-05-24T00:23:16.626Z,8.40
2023-05-24T00:25:43.552Z,8.50
2023-05-24T00:28:10.521Z,8.40
2023-05-24T00:30:37.447Z,8.40
2023-05-24T00:33:04.524Z,8.40
2023-05-24T00:35:31.638Z,8.30
2023-05-24T00:37:58.717Z,8.30
2023-05-24T00:40:25.692Z,8.20
2023-05-24T00:42:52.690Z,8.20
2023-05-24T00:45:19.765Z,8.30
2023-05-24T00:47:47.755Z,8.30
2023-05-24T00:50:17.088Z,8.40
2023-05-24T00:52:44.163Z,8.30
2023-05-24T00:55:12.362Z,8.30
2023-05-24T00:57:39.591Z,8.30
2023-05-24T01:00:08.115Z,8.40
2023-05-24T01:02:35.332Z,8.30
2023-05-24T01:05:03.130Z,8.40
2023-05-24T01:07:48.608Z,8.40
2023-05-24T01:10:46.168Z,8.40
2023-05-24T01:13:28.166Z,8.60
2023-05-24T01:16:24.316Z,8.60
2023-05-24T01:18:57.103Z,8.60
2023-05-24T01:21:56.271Z,8.50
2023-05-24T01:24:44.432Z,8.40
2023-05-24T01:27:16.081Z,8.50
2023-05-24T01:29:43.136Z,8.40
2023-05-24T01:32:10.594Z,8.50
2023-05-24T01:34:39.713Z,8.50
2023-05-24T01:37:06.753Z,8.40
2023-05-24T01:39:33.724Z,8.40
2023-05-24T01:42:34.519Z,8.20
2023-05-24T01:45:33.591Z,8.10
2023-05-24T01:48:28.676Z,8.10
2023-05-24T01:51:00.940Z,8.10
2023-05-24T01:53:34.722Z,8.20
2023-05-24T01:56:05.366Z,8.20
2023-05-24T01:58:33.665Z,8.10
2023-05-24T02:01:01.577Z,8.00
2023-05-24T02:03:28.926Z,7.90
2023-05-24T02:05:55.907Z,7.90
2023-05-24T02:08:22.968Z,7.80
2023-05-24T02:10:50.114Z,7.80
2023-05-24T02:13:19.722Z,7.70
2023-05-24T02:15:47.736Z,7.70
2023-05-24T02:18:14.938Z,7.70
2023-05-24T02:20:42.564Z,7.70
2023-05-24T02:23:09.745Z,7.70
2023-05-24T02:25:37.415Z,7.70
2023-05-24T02:28:04.760Z,7.70
2023-05-24T02:30:31.733Z,7.70
2023-05-24T02:32:58.761Z,7.70
2023-05-24T02:35:25.944Z,7.70
2023-05-24T02:37:53.072Z,7.70
2023-05-24T02:40:20.054Z,7.70
2023-05-24T02:42:46.965Z,7.70
2023-05-24T02:45:13.955Z,7.80
2023-05-24T02:47:41.009Z,7.70
2023-05-24T02:50:08.446Z,7.70
2023-05-24T02:52:36.289Z,7.70
2023-05-24T02:55:03.986Z,7.90
2023-05-24T02:57:34.177Z,8.00
2023-05-24T03:00:01.545Z,8.00
2023-05-24T03:02:29.978Z,7.90
2023-05-24T03:04:57.328Z,7.80
2023-05-24T03:07:24.297Z,7.80
2023-05-24T03:09:51.364Z,7.80
2023-05-24T03:12:18.327Z,7.90
2023-05-24T03:14:45.306Z,7.90
2023-05-24T03:17:12.256Z,7.90
2023-05-24T03:19:39.271Z,7.90
2023-05-24T03:22:06.229Z,7.90
2023-05-24T03:24:33.536Z,7.90
2023-05-24T03:27:01.085Z,8.00
2023-05-24T03:29:28.117Z,8.20
2023-05-24T03:31:55.564Z,8.20
2023-05-24T03:34:22.709Z,8.10
2023-05-24T03:36:49.939Z,8.10
2023-05-24T03:39:17.505Z,8.00
2023-05-24T03:42:03.376Z,8.00
2023-05-24T03:44:31.575Z,7.90
2023-05-24T03:46:59.715Z,7.90
2023-05-24T03:49:26.626Z,7.90
2023-05-24T03:51:53.748Z,7.90
2023-05-24T03:54:20.682Z,7.90
2023-05-24T03:56:48.009Z,7.90
2023-05-24T03:59:14.977Z,7.90
2023-05-24T04:01:42.072Z,7.90
2023-05-24T04:04:09.146Z,8.00
2023-05-24T04:06:38.077Z,8.00
2023-05-24T04:09:05.928Z,8.10
2023-05-24T04:11:32.977Z,8.10
2023-05-24T04:14:00.638Z,8.20
2023-05-24T04:16:28.500Z,8.20
2023-05-24T04:18:57.338Z,8.20
2023-05-24T04:21:24.439Z,8.30
2023-05-24T04:23:52.951Z,8.30
2023-05-24T04:26:21.230Z,8.30
2023-05-24T04:28:48.669Z,8.30
2023-05-24T04:31:16.441Z,8.30
2023-05-24T04:33:43.699Z,8.40
2023-05-24T04:36:12.035Z,8.40
2023-05-24T04:38:40.910Z,8.50
2023-05-24T04:41:08.095Z,8.60
2023-05-24T04:43:35.427Z,8.70
2023-05-24T04:46:03.109Z,8.80
2023-05-24T04:48:30.222Z,8.80
2023-05-24T04:50:58.468Z,8.80
2023-05-24T04:53:25.826Z,8.70
2023-05-24T04:55:53.300Z,8.60
2023-05-24T04:58:20.295Z,8.60
2023-05-24T05:00:47.355Z,8.70
2023-05-24T05:03:14.558Z,8.70
2023-05-24T05:05:41.625Z,8.70
2023-05-24T05:08:08.544Z,8.80
2023-05-24T05:10:36.267Z,8.80
2023-05-24T05:13:03.390Z,8.90
2023-05-24T05:15:30.692Z,9.00
2023-05-24T05:17:57.728Z,9.30
2023-05-24T05:20:25.216Z,9.40
2023-05-24T05:22:52.310Z,9.60
2023-05-24T05:25:19.305Z,9.70
2023-05-24T05:27:46.317Z,9.80
2023-05-24T05:30:13.697Z,9.90
2023-05-24T05:32:40.765Z,9.70
2023-05-24T05:35:08.543Z,9.60
2023-05-24T05:37:35.494Z,9.60
2023-05-24T05:40:03.895Z,9.50
2023-05-24T05:42:30.840Z,9.50
2023-05-24T05:44:57.893Z,9.60
2023-05-24T05:47:24.849Z,9.60
2023-05-24T05:49:51.804Z,9.70
2023-05-24T05:52:18.873Z,9.80
2023-05-24T05:54:45.868Z,9.80
2023-05-24T05:57:12.940Z,9.90
2023-05-24T05:59:39.938Z,10.10
2023-05-24T06:02:07.133Z,10.10
2023-05-24T06:04:34.518Z,10.00
2023-05-24T06:07:02.143Z,10.10
2023-05-24T06:09:29.177Z,10.10
2023-05-24T06:11:56.101Z,10.10
2023-05-24T06:14:25.159Z,10.10
2023-05-24T06:16:54.406Z,10.20
2023-05-24T06:19:21.764Z,10.20
2023-05-24T06:21:50.606Z,10.10
2023-05-24T06:24:22.216Z,10.10
2023-05-24T06:26:51.431Z,10.20
2023-05-24T06:29:22.539Z,10.30
2023-05-24T06:31:50.625Z,10.50
2023-05-24T06:34:21.055Z,10.70
2023-05-24T06:36:48.532Z,10.70
2023-05-24T06:39:16.149Z,10.90
2023-05-24T06:41:44.526Z,11.00
2023-05-24T06:44:11.417Z,11.10
2023-05-24T06:46:38.946Z,11.40
2023-05-24T06:49:05.975Z,11.40
2023-05-24T06:51:33.855Z,11.50
2023-05-24T06:54:01.024Z,11.50
2023-05-24T06:56:29.137Z,11.60
2023-05-24T06:58:56.832Z,11.60
2023-05-24T07:01:23.908Z,11.70
2023-05-24T07:03:50.934Z,11.70
2023-05-24T07:06:18.432Z,11.70
2023-05-24T07:08:45.451Z,11.70
2023-05-24T07:11:12.652Z,11.60
2023-05-24T07:13:39.680Z,11.50
2023-05-24T07:16:07.087Z,11.40
2023-05-24T07:18:34.113Z,11.40
2023-05-24T07:21:01.265Z,11.30
2023-05-24T07:23:28.416Z,11.30
2023-05-24T07:25:55.349Z,11.30
2023-05-24T07:28:22.520Z,11.30
2023-05-24T07:30:49.645Z,11.40
2023-05-24T07:33:17.047Z,11.40
2023-05-24T07:35:45.898Z,11.50
2023-05-24T07:38:12.993Z,11.60
2023-05-24T07:40:40.005Z,11.70
2023-05-24T07:43:07.077Z,11.50
2023-05-24T07:45:34.113Z,11.40
2023-05-24T07:48:01.802Z,11.30
2023-05-24T07:50:32.151Z,11.30
2023-05-24T07:52:59.257Z,11.20
2023-05-24T07:55:28.012Z,11.10
2023-05-24T07:57:55.128Z,11.00
2023-05-24T08:00:23.141Z,10.90
2023-05-24T08:02:50.354Z,10.90
2023-05-24T08:05:17.743Z,11.00
2023-05-24T08:07:45.692Z,11.00
2023-05-24T08:10:13.728Z,11.10
2023-05-24T08:12:41.462Z,11.10
2023-05-24T08:15:09.013Z,11.20
2023-05-24T08:17:36.096Z,11.20
2023-05-24T08:20:08.925Z,11.20
2023-05-24T08:22:37.340Z,11.20
2023-05-24T08:25:04.765Z,11.10
2023-05-24T08:27:31.824Z,11.10
2023-05-24T08:29:59.123Z,11.30
2023-05-24T08:32:26.737Z,11.30
2023-05-24T08:34:58.158Z,11.40
2023-05-24T08:37:31.927Z,11.50
2023-05-24T08:39:59.217Z,11.60
2023-05-24T08:42:28.656Z,11.50
2023-05-24T08:45:13.769Z,11.50
2023-05-24T08:47:42.321Z,11.40
2023-05-24T08:50:10.090Z,11.30
2023-05-24T08:52:37.300Z,11.20
2023-05-24T08:55:05.431Z,11.20
2023-05-24T08:57:34.805Z,11.30
2023-05-24T09:00:02.226Z,11.30
2023-05-24T09:02:31.351Z,11.40
2023-05-24T09:04:59.764Z,11.40
2023-05-24T09:07:27.685Z,11.40
2023-05-24T09:10:09.236Z,11.40
2023-05-24T09:12:39.267Z,11.50
2023-05-24T09:15:08.528Z,11.50
2023-05-24T09:17:38.006Z,11.50
2023-05-24T09:20:10.223Z,11.60
2023-05-24T09:22:40.987Z,11.70
2023-05-24T09:25:11.398Z,11.70
2023-05-24T09:27:38.952Z,11.70
2023-05-24T09:30:10.888Z,11.80
2023-05-24T09:32:38.264Z,11.90
2023-05-24T09:35:09.726Z,12.00
2023-05-24T09:37:38.833Z,11.90
2023-05-24T09:40:08.929Z,11.90
2023-05-24T09:42:35.901Z,12.00
2023-05-24T09:45:09.070Z,12.10
2023-05-24T09:47:38.641Z,12.10
2023-05-24T09:50:12.945Z,12.20
2023-05-24T09:52:41.135Z,12.40
2023-05-24T09:55:16.447Z,12.50
2023-05-24T09:58:05.763Z,12.50
2023-05-24T10:00:41.244Z,12.50
2023-05-24T10:03:12.023Z,12.60
2023-05-24T10:05:44.831Z,12.70
2023-05-24T10:08:12.581Z,12.70
2023-05-24T10:10:39.616Z,12.60
2023-05-24T10:13:07.622Z,12.70
2023-05-24T10:15:34.536Z,12.80
2023-05-24T10:18:02.612Z,12.90
2023-05-24T10:20:30.084Z,12.90
2023-05-24T10:23:01.964Z,12.90
2023-05-24T10:25:29.977Z,12.90
2023-05-24T10:28:08.819Z,12.90
2023-05-24T10:31:09.244Z,12.80
2023-05-24T10:33:37.608Z,12.80
2023-05-24T10:36:09.664Z,12.80
2023-05-24T10:38:41.690Z,12.80
2023-05-24T10:41:09.364Z,12.80
2023-05-24T10:43:37.838Z,12.90
2023-05-24T10:46:08.774Z,12.90
2023-05-24T10:48:41.090Z,12.90
2023-05-24T10:51:33.632Z,12.90
2023-05-24T10:54:19.767Z,12.90
2023-05-24T10:56:51.278Z,12.90
2023-05-24T10:59:37.877Z,13.10
2023-05-24T11:02:16.318Z,13.10
2023-05-24T11:04:46.944Z,13.30
2023-05-24T11:07:15.753Z,13.40
2023-05-24T11:09:46.622Z,13.70
2023-05-24T11:12:18.769Z,13.90
2023-05-24T11:14:52.036Z,14.30
2023-05-24T11:17:23.627Z,14.60
2023-05-24T11:19:55.138Z,14.70
2023-05-24T11:22:25.183Z,14.80
2023-05-24T11:24:53.400Z,14.90
2023-05-24T11:27:20.532Z,14.90
2023-05-24T11:29:48.605Z,14.70
2023-05-24T11:32:20.975Z,14.60
2023-05-24T11:34:48.893Z,14.60
2023-05-24T11:37:18.083Z,14.60
2023-05-24T11:39:50.045Z,14.60
2023-05-24T11:42:17.489Z,14.50
2023-05-24T11:44:44.559Z,14.50
2023-05-24T11:47:16.518Z,14.60
2023-05-24T11:49:43.469Z,14.70
2023-05-24T11:52:10.591Z,14.70
2023-05-24T11:54:38.849Z,14.60
2023-05-24T11:57:06.186Z,14.60
2023-05-24T11:59:35.732Z,14.30
2023-05-24T12:02:06.507Z,14.20
2023-05-24T12:04:34.801Z,14.20
2023-05-24T12:07:02.966Z,14.20
2023-05-24T12:09:30.201Z,14.20
2023-05-24T12:11:58.412Z,14.20
2023-05-24T12:14:32.886Z,14.30
2023-05-24T12:17:03.467Z,14.30
2023-05-24T12:19:36.480Z,14.30
2023-05-24T12:22:08.192Z,14.20
2023-05-24T12:24:37.137Z,14.30
2023-05-24T12:27:09.074Z,14.50
2023-05-24T12:29:39.811Z,14.70
2023-05-24T12:32:15.419Z,14.80
2023-05-24T12:34:44.168Z,14.70
2023-05-24T12:37:13.171Z,14.50
2023-05-24T12:39:43.005Z,14.40
2023-05-24T12:42:13.228Z,14.40
2023-05-24T12:44:40.715Z,14.20
2023-05-24T12:47:08.938Z,14.30
2023-05-24T12:49:36.178Z,14.20
2023-05-24T12:52:03.218Z,14.20
2023-05-24T12:54:30.397Z,14.20
2023-05-24T12:57:00.018Z,14.10
2023-05-24T12:59:28.595Z,14.20
2023-05-24T13:01:56.015Z,14.20
2023-05-24T13:04:26.034Z,14.30
2023-05-24T13:06:53.124Z,14.30
2023-05-24T13:09:22.390Z,14.50
2023-05-24T13:11:49.442Z,14.50
2023-05-24T13:14:17.165Z,14.50
2023-05-24T13:16:44.673Z,14.50
2023-05-24T13:19:12.379Z,14.60
2023-05-24T13:21:39.880Z,14.70
2023-05-24T13:24:07.608Z,14.60
2023-05-24T13:26:37.405Z,14.50
2023-05-24T13:31:37.859Z,14.60
2023-05-24T13:34:05.925Z,14.60
2023-05-24T13:36:33.543Z,14.50
2023-05-24T13:41:31.579Z,14.50
2023-05-24T13:43:58.634Z,14.60
2023-05-24T13:46:25.689Z,14.80
2023-05-24T13:48:52.651Z,14.90
2023-05-24T13:51:19.941Z,15.00
2023-05-24T13:53:48.050Z,15.10
2023-05-24T13:56:16.243Z,15.10
2023-05-24T13:58:43.247Z,15.20
2023-05-24T14:01:10.702Z,15.40
2023-05-24T14:03:39.650Z,15.70
2023-05-24T14:06:07.961Z,15.80
2023-05-24T14:08:35.543Z,16.00
2023-05-24T14:11:02.507Z,16.10
2023-05-24T14:15:59.423Z,16.10
2023-05-24T14:18:26.736Z,16.10
2023-05-24T14:20:53.782Z,16.20
2023-05-24T14:23:20.884Z,16.00
2023-05-24T14:25:47.937Z,15.90
2023-05-24T14:28:14.942Z,15.80
2023-05-24T14:30:42.151Z,15.80
2023-05-24T14:33:11.432Z,15.70
2023-05-24T14:35:39.728Z,15.50
2023-05-24T14:38:09.376Z,15.40
2023-05-24T14:40:39.062Z,15.30
2023-05-24T14:43:07.344Z,15.30
2023-05-24T14:45:34.304Z,15.20
2023-05-24T14:48:02.544Z,15.10
2023-05-24T14:50:29.929Z,15.20
2023-05-24T14:52:56.988Z,15.20
2023-05-24T14:55:23.972Z,15.20
2023-05-24T14:57:51.720Z,15.00
2023-05-24T15:00:22.191Z,14.80
2023-05-24T15:02:50.258Z,14.70
2023-05-24T15:05:17.232Z,14.60
2023-05-24T15:07:44.203Z,14.60
2023-05-24T15:10:11.893Z,14.50
2023-05-24T15:12:38.910Z,14.50
2023-05-24T15:15:07.904Z,14.50
2023-05-24T15:17:35.025Z,14.60
2023-05-24T15:20:02.723Z,14.60
2023-05-24T15:22:29.791Z,14.80
2023-05-24T15:24:56.958Z,14.90
2023-05-24T15:27:23.904Z,14.90
2023-05-24T15:29:53.941Z,15.10
2023-05-24T15:32:21.081Z,15.10
2023-05-24T15:34:50.125Z,15.30
2023-05-24T15:37:21.778Z,15.40
2023-05-24T15:39:49.517Z,15.50
2023-05-24T15:42:16.575Z,15.40
2023-05-24T15:44:43.862Z,15.50
2023-05-24T15:47:10.833Z,15.60
2023-05-24T15:49:37.821Z,15.70
2023-05-24T15:52:05.481Z,15.90
2023-05-24T15:54:32.899Z,16.00
2023-05-24T15:57:03.049Z,16.20
2023-05-24T15:59:30.113Z,16.20
2023-05-24T16:01:57.090Z,16.20
2023-05-24T16:04:24.093Z,16.10
2023-05-24T16:06:51.066Z,16.00
2023-05-24T16:09:18.086Z,15.90
2023-05-24T16:11:45.210Z,15.80
2023-05-24T16:14:12.251Z,15.90
2023-05-24T16:16:39.294Z,15.90
2023-05-24T16:19:06.297Z,15.80
2023-05-24T16:21:33.382Z,15.90
2023-05-24T16:24:01.895Z,15.90
2023-05-24T16:26:30.830Z,15.90
2023-05-24T16:28:58.952Z,15.90
2023-05-24T16:31:26.163Z,15.90
2023-05-24T16:33:53.194Z,15.90
2023-05-24T16:36:21.259Z,16.00
2023-05-24T16:38:48.198Z,16.10
2023-05-24T16:41:15.165Z,16.00
2023-05-24T16:43:42.190Z,16.10
2023-05-24T16:46:09.155Z,16.10
2023-05-24T16:48:36.122Z,16.00
2023-05-24T16:51:03.446Z,16.00
2023-05-24T16:53:30.530Z,16.00
2023-05-24T16:55:58.024Z,15.90
2023-05-24T16:58:30.847Z,15.80
2023-05-24T17:00:58.559Z,15.70
2023-05-24T17:03:29.893Z,15.70
2023-05-24T17:06:03.334Z,15.70
2023-05-24T17:08:38.144Z,15.80
2023-05-24T17:11:06.370Z,15.80
2023-05-24T17:13:34.131Z,15.80
2023-05-24T17:16:02.975Z,15.90
2023-05-24T17:18:30.042Z,15.80
2023-05-24T17:21:03.539Z,15.70
2023-05-24T17:23:32.171Z,15.60
2023-05-24T17:26:00.786Z,15.40
2023-05-24T17:28:28.305Z,15.30
2023-05-24T17:31:00.431Z,15.30
2023-05-24T17:33:30.051Z,15.40
2023-05-24T17:35:57.584Z,15.40
2023-05-24T17:38:25.413Z,15.40
2023-05-24T17:40:59.691Z,15.50
2023-05-24T17:43:32.729Z,15.50
2023-05-24T17:46:06.320Z,15.50
2023-05-24T17:48:38.708Z,15.50
2023-05-24T17:51:10.394Z,15.50
2023-05-24T17:53:38.456Z,15.40
2023-05-24T17:56:07.468Z,15.30
2023-05-24T17:58:37.632Z,15.30
2023-05-24T18:01:06.860Z,15.20
2023-05-24T18:03:36.498Z,15.20
2023-05-24T18:06:07.771Z,15.10
2023-05-24T18:08:43.115Z,15.20
2023-05-24T18:11:12.514Z,15.10
2023-05-24T18:13:41.839Z,15.10
2023-05-24T18:16:10.719Z,15.20
2023-05-24T18:18:38.038Z,15.20
2023-05-24T18:21:05.653Z,15.30
2023-05-24T18:23:37.257Z,15.30
2023-05-24T18:26:09.162Z,15.20
2023-05-24T18:28:37.474Z,15.10
2023-05-24T18:31:08.467Z,15.00
2023-05-24T18:33:35.874Z,15.00
2023-05-24T18:36:04.370Z,15.00
2023-05-24T18:38:33.918Z,14.90
2023-05-24T18:41:03.528Z,14.90
2023-05-24T18:43:32.556Z,14.80
2023-05-24T18:45:59.548Z,14.80
2023-05-24T18:48:26.465Z,14.70
2023-05-24T18:50:54.484Z,14.70
2023-05-24T18:53:21.603Z,14.80
2023-05-24T18:55:48.562Z,14.80
2023-05-24T18:58:15.652Z,14.80
2023-05-24T19:00:42.903Z,14.70
2023-05-24T19:03:12.090Z,14.70
2023-05-24T19:05:42.563Z,14.60
2023-05-24T19:08:10.828Z,14.60
2023-05-24T19:10:37.837Z,14.50
2023-05-24T19:13:06.133Z,14.40
2023-05-24T19:15:36.483Z,14.40
2023-05-24T19:18:03.670Z,14.30
2023-05-24T19:20:30.862Z,14.30
2023-05-24T19:22:57.967Z,14.30
2023-05-24T19:25:24.930Z,14.20
2023-05-24T19:30:21.833Z,14.30
2023-05-24T19:32:48.808Z,14.20
2023-05-24T19:35:15.863Z,14.00
2023-05-24T19:37:42.854Z,14.00
2023-05-24T19:40:11.149Z,13.90
2023-05-24T19:42:38.090Z,14.00
2023-05-24T19:45:05.905Z,13.90
2023-05-24T19:47:32.872Z,13.90
2023-05-24T19:49:59.828Z,13.90
2023-05-24T19:52:26.793Z,13.90
2023-05-24T19:54:54.013Z,14.00
2023-05-24T19:57:20.968Z,14.00
2023-05-24T19:59:48.416Z,13.90
2023-05-24T20:02:15.399Z,14.00
2023-05-24T20:04:43.746Z,14.00
2023-05-24T20:07:11.434Z,14.00
2023-05-24T20:09:38.503Z,14.10
2023-05-24T20:12:06.227Z,14.10
2023-05-24T20:14:33.247Z,14.10
2023-05-24T20:17:01.180Z,14.00
2023-05-24T20:19:28.232Z,13.90
2023-05-24T20:21:55.298Z,13.80
2023-05-24T20:24:22.612Z,13.70
2023-05-24T20:26:49.637Z,13.70
2023-05-24T20:29:16.651Z,13.60
2023-05-24T20:31:43.761Z,13.50
2023-05-24T20:34:10.854Z,13.50
2023-05-24T20:36:37.863Z,13.50
2023-05-24T20:39:04.947Z,13.50
2023-05-24T20:41:31.951Z,13.50
2023-05-24T20:43:58.916Z,13.40
2023-05-24T20:46:26.266Z,13.40
2023-05-24T20:48:53.845Z,13.20
2023-05-24T20:51:22.978Z,13.30
2023-05-24T20:53:52.939Z,13.30
2023-05-24T20:56:21.319Z,13.30
2023-05-24T20:58:52.552Z,13.30
2023-05-24T21:01:20.785Z,13.30
2023-05-24T21:03:47.772Z,13.30
2023-05-24T21:06:14.774Z,13.20
2023-05-24T21:08:43.321Z,13.20
2023-05-24T21:11:10.591Z,13.20
2023-05-24T21:13:37.681Z,13.10
2023-05-24T21:16:04.983Z,13.10
2023-05-24T21:18:33.350Z,13.00
2023-05-24T21:21:00.630Z,13.00
2023-05-24T21:23:27.599Z,12.80
2023-05-24T21:25:54.587Z,12.80
2023-05-24T21:28:21.596Z,12.80
2023-05-24T21:30:48.768Z,12.70
2023-05-24T21:33:16.553Z,12.70
2023-05-24T21:35:43.769Z,12.60
2023-05-24T21:38:11.005Z,12.60
2023-05-24T21:40:38.045Z,12.50
2023-05-24T21:43:05.230Z,12.40
2023-05-24T21:45:32.275Z,12.30
2023-05-24T21:47:59.293Z,12.30
2023-05-24T21:50:26.362Z,12.10
2023-05-24T21:52:53.346Z,12.00
2023-05-24T21:55:20.754Z,12.00
2023-05-24T21:57:47.752Z,11.90
2023-05-24T22:00:16.697Z,11.90
2023-05-24T22:02:43.890Z,11.80
2023-05-24T22:05:11.192Z,11.70
2023-05-24T22:07:38.258Z,11.70
2023-05-24T22:10:07.277Z,11.70
2023-05-24T22:12:34.966Z,11.80
2023-05-24T22:15:02.450Z,11.80
2023-05-24T22:17:32.719Z,11.80
2023-05-24T22:20:02.314Z,11.70
2023-05-24T22:22:29.771Z,11.70
2023-05-24T22:24:56.837Z,11.70
2023-05-24T22:27:24.042Z,11.70
2023-05-24T22:29:51.075Z,11.70
2023-05-24T22:32:18.204Z,11.70
2023-05-24T22:34:45.184Z,11.70
2023-05-24T22:37:12.169Z,11.70
2023-05-24T22:39:39.509Z,11.70
2023-05-24T22:42:06.447Z,11.60
2023-05-24T22:44:33.426Z,11.60
2023-05-24T22:47:01.918Z,11.60
2023-05-24T22:49:29.602Z,11.70
2023-05-24T22:51:56.779Z,11.70
2023-05-24T22:54:23.720Z,11.70
2023-05-24T22:56:50.916Z,11.60
2023-05-24T22:59:17.842Z,11.40
2023-05-24T23:01:44.916Z,11.30
2023-05-24T23:04:20.976Z,11.30
2023-05-24T23:06:55.006Z,11.20
2023-05-24T23:09:29.252Z,11.20
2023-05-24T23:11:58.696Z,11.20
2023-05-24T23:14:25.913Z,11.30
2023-05-24T23:16:52.894Z,11.40
2023-05-24T23:19:22.094Z,11.50
2023-05-24T23:21:52.204Z,11.50
2023-05-24T23:24:19.488Z,11.40
2023-05-24T23:26:46.482Z,11.40
2023-05-24T23:29:13.583Z,11.40
2023-05-24T23:31:40.714Z,11.40
2023-05-24T23:34:07.736Z,11.40
2023-05-24T23:36:34.669Z,11.40
2023-05-24T23:39:01.645Z,11.40
2023-05-24T23:41:28.597Z,11.40
2023-05-24T23:43:55.811Z,11.40
2023-05-24T23:46:22.784Z,11.30
2023-05-24T23:48:49.816Z,11.30
2023-05-24T23:51:16.845Z,11.30
2023-05-24T23:53:43.848Z,11.30
2023-05-24T23:56:11.256Z,11.40
2023-05-24T23:58:38.224Z,11.40
